Latest Weather Observations for Cape Bruny AWS

IDT60901

Issued at 6:05 pm EST Friday 18 April 2014 (issued every 10 minutes, with the page automatically refreshed every 10 minutes)

About weather observations | Map of Hobart area stations | Latest observations for Hobart area | Other Formats
Station Details ID: 094198 Name: CAPE BRUNY (CAPE BRUNY) Lat: -43.49 Lon: 147.14 Height: 59.7 m
Data from the previous 72 hours. | See also: Recent months at Cape Bruny AWS
Date/Time
EST
Tmp

°C
App
Tmp
°C
Dew
Point
°C
Rel
Hum
%
Delta-T

°C
Wind Press
QNH
hPa
Press
MSL
hPa
Rain
since
9 am
mm
Dir
 
Spd
km/h
Gust
km/h
Spd
kts
Gust
kts
18/06:00pm 10.5 0.4 7.6 82 1.4 WSW 50 69 27 37 1010.2 1010.2 1.6
18/05:48pm 11.0 2.6 7.3 78 1.8 W 41 63 22 34 1010.0 - 1.6
18/05:30pm 11.1 2.9 8.0 81 1.5 W 41 56 22 30 1009.8 - 1.6
18/05:00pm 12.0 3.2 7.1 72 2.4 W 43 54 23 29 1009.4 - 1.4
18/04:37pm 12.3 2.1 7.0 70 2.6 W 50 69 27 37 1009.1 - 1.4
18/04:30pm 12.6 1.5 6.2 65 3.0 W 54 65 29 35 1008.9 - 1.4
18/04:04pm 13.0 3.3 5.9 62 3.4 W 46 67 25 36 1008.4 - 1.4
18/04:00pm 13.1 3.7 7.1 67 2.9 W 46 61 25 33 1008.4 - 1.4
18/03:39pm 13.2 3.0 6.8 65 3.1 W 50 70 27 38 1007.9 - 1.4
18/03:30pm 13.1 2.2 7.1 67 2.9 W 54 69 29 37 1007.7 - 1.4
18/03:00pm 13.5 3.1 7.9 69 2.8 W 52 72 28 39 1007.4 1007.4 1.4
18/02:39pm 13.1 3.3 7.1 67 2.9 W 48 70 26 38 1007.5 - 1.4
18/02:30pm 13.3 4.9 7.5 68 2.8 W 41 52 22 28 1007.6 - 1.4
18/02:28pm 13.4 4.7 7.6 68 2.9 W 43 61 23 33 1007.6 - 1.4
18/02:00pm 12.6 3.6 7.1 69 2.7 W 44 59 24 32 1007.6 - 1.4
18/01:30pm 12.7 4.5 8.2 74 2.2 W 41 54 22 29 1007.2 - 1.4
18/01:00pm 11.2 2.5 7.7 79 1.7 W 43 59 23 32 1007.4 - 1.4
18/12:41pm 12.1 5.4 7.2 72 2.4 W 32 52 17 28 1007.5 - 1.4
18/12:30pm 11.6 6.4 7.3 75 2.1 W 24 32 13 17 1007.8 - 1.4
18/12:00pm 11.6 7.9 7.9 78 1.8 WNW 17 24 9 13 1007.9 1007.9 1.4
18/11:30am 11.9 8.1 7.6 75 2.1 W 17 24 9 13 1007.7 - 1.2
18/11:00am 11.7 5.0 7.2 74 2.2 W 32 41 17 22 1008.3 - 1.0
18/10:30am 11.7 2.7 7.2 74 2.2 W 44 65 24 35 1008.2 - 1.0
18/10:00am 11.7 3.4 7.8 77 1.9 W 41 54 22 29 1008.0 - 1.0
18/09:30am 11.0 3.3 8.6 85 1.2 WSW 39 54 21 29 1008.2 - 0.4
18/09:26am 11.3 2.9 8.9 85 1.2 W 43 61 23 33 1008.2 - 0.4
18/09:19am 12.5 2.2 8.0 74 2.2 WSW 52 61 28 33 1008.0 - 0.0
18/09:18am 13.2 7.3 7.6 69 2.8 W 28 56 15 30 1008.1 - 0.0
18/09:00am 16.2 13.4 10.1 67 3.2 N 15 20 8 11 1006.6 1006.6 0.0
18/08:30am 15.1 12.2 9.7 70 2.8 NNE 15 26 8 14 1006.7 - 0.0
18/08:00am 13.9 10.8 10.3 79 1.9 N 17 22 9 12 1007.1 - 0.0
18/07:30am 13.0 10.6 10.0 82 1.5 NNE 13 17 7 9 1007.7 - 0.0
18/07:00am 13.0 10.3 8.9 76 2.1 NNE 13 20 7 11 1007.7 - 0.0
18/06:30am 12.9 9.5 9.2 78 1.9 N 17 20 9 11 1007.8 - 0.0
18/06:00am 13.0 9.0 8.3 73 2.3 N 19 24 10 13 1008.0 1008.0 0.0
18/05:30am 12.7 9.7 9.3 80 1.7 N 15 20 8 11 1008.7 - 0.0
18/05:00am 12.9 9.9 9.2 78 1.9 N 15 19 8 10 1009.1 - 0.0
18/04:30am 13.2 11.0 9.3 77 2.0 N 11 17 6 9 1009.5 - 0.0
18/04:00am 13.5 10.6 9.6 77 2.0 N 15 20 8 11 1009.8 - 0.0
18/03:30am 12.5 10.4 9.7 83 1.4 N 11 15 6 8 1009.9 - 0.0
18/03:00am 12.2 8.7 10.1 87 1.1 NNE 19 24 10 13 1010.2 1010.2 0.0
18/02:30am 12.4 9.4 10.5 88 1.0 N 17 24 9 13 1010.9 - 0.0
18/02:00am 12.3 8.9 10.4 88 1.0 NNE 19 22 10 12 1011.3 - 0.0
18/01:30am 12.2 9.9 10.3 88 1.0 NNE 13 20 7 11 1011.8 - 0.0
18/01:00am 12.8 9.5 11.0 89 0.9 NNE 19 22 10 12 1012.2 - 0.0
18/12:30am 13.1 9.9 11.2 88 1.0 N 19 24 10 13 1012.6 - 0.0
18/12:00am 13.2 10.0 11.1 87 1.1 N 19 20 10 11 1013.1 1013.1 0.0
 
Date/Time
EST
Tmp

°C
App
Tmp
°C
Dew
Point
°C
Rel
Hum
%
Delta-T

°C
Wind Press
QNH
hPa
Press
MSL
hPa
Rain
since
9 am
mm
Dir
 
Spd
km/h
Gust
km/h
Spd
kts
Gust
kts
17/11:30pm 13.1 9.1 10.6 85 1.3 N 22 24 12 13 1013.5 - 0.0
17/11:00pm 13.0 9.6 11.2 89 1.0 N 20 24 11 13 1013.8 - 0.0
17/10:30pm 12.9 10.3 10.8 87 1.1 NNW 15 17 8 9 1014.5 - 0.0
17/10:00pm 12.7 11.2 10.6 87 1.1 N 9 11 5 6 1014.8 - 0.0
17/09:30pm 12.6 11.1 10.5 87 1.1 WNW 9 11 5 6 1015.1 - 0.0
17/09:00pm 13.3 11.9 11.0 86 1.2 WNW 9 11 5 6 1015.2 1015.2 0.0
17/08:30pm 13.9 13.0 11.2 84 1.4 W 7 11 4 6 1015.5 - 0.0
17/08:00pm 14.5 13.5 10.9 79 1.9 WSW 7 11 4 6 1015.6 - 0.0
17/07:30pm 14.9 13.8 10.7 76 2.2 W 7 11 4 6 1015.8 - 0.0
17/07:00pm 14.7 12.9 9.5 71 2.7 WSW 9 13 5 7 1016.0 - 0.0
17/06:30pm 15.3 12.6 8.8 65 3.3 NNE 13 17 7 9 1015.7 - 0.0
17/06:00pm 16.0 13.2 8.7 62 3.7 NNE 13 19 7 10 1015.8 1015.8 0.0
17/05:30pm 15.7 12.6 8.7 63 3.6 NNE 15 19 8 10 1015.8 - 0.0
17/05:00pm 16.4 13.3 8.9 61 3.9 NE 15 19 8 10 1015.7 - 0.0
17/04:30pm 16.9 14.2 8.8 59 4.2 NE 13 19 7 10 1015.8 - 0.0
17/04:00pm 18.1 14.7 9.2 56 4.7 NE 17 20 9 11 1016.0 - 0.0
17/03:30pm 19.1 16.4 9.0 52 5.3 NNE 13 20 7 11 1016.5 - 0.0
17/03:00pm 19.4 16.3 9.0 51 5.5 NE 15 20 8 11 1016.7 1016.7 0.0
17/02:30pm 19.6 16.3 8.0 47 6.0 NNE 15 22 8 12 1017.0 - 0.0
17/02:00pm 19.5 15.9 8.5 49 5.7 NNE 17 26 9 14 1017.2 - 0.0
17/01:30pm 19.9 16.4 8.6 48 5.9 NNE 17 24 9 13 1017.4 - 0.0
17/01:00pm 19.3 15.8 7.1 45 6.2 N 15 20 8 11 1018.0 - 0.0
17/12:30pm 19.1 15.1 8.1 49 5.7 NNE 19 24 10 13 1018.5 - 0.0
17/12:00pm 18.6 15.6 9.1 54 5.0 NNE 15 22 8 12 1019.0 1019.1 0.0
17/11:30am 17.0 13.3 9.4 61 4.0 NNE 19 24 10 13 1019.3 - 0.0
17/11:00am 17.1 14.4 11.6 70 3.0 NNE 17 24 9 13 1019.7 - 0.0
17/10:30am 16.1 12.7 10.4 69 3.0 NNE 19 26 10 14 1019.6 - 0.0
17/10:00am 14.8 11.4 10.4 75 2.3 NNE 19 28 10 15 1019.9 - 0.0
17/09:30am 13.3 9.3 10.5 83 1.5 N 22 30 12 16 1020.1 - 0.0
17/09:00am 12.2 7.7 10.1 87 1.1 N 24 32 13 17 1020.1 1020.1 0.2
17/08:30am 11.6 7.2 10.3 92 0.7 N 24 32 13 17 1020.1 - 0.2
17/08:00am 10.9 6.4 10.0 94 0.5 N 24 32 13 17 1020.1 - 0.2
17/07:30am 10.6 6.0 9.7 94 0.5 N 24 32 13 17 1019.8 - 0.0
17/07:00am 10.3 5.3 9.4 94 0.4 N 26 33 14 18 1019.6 - 0.0
17/06:30am 10.3 5.3 9.4 94 0.4 N 26 33 14 18 1019.5 - 0.0
17/06:00am 10.5 5.9 9.6 94 0.5 N 24 32 13 17 1019.7 1019.8 0.0
17/05:30am 10.4 6.5 9.5 94 0.5 N 20 26 11 14 1019.5 - 0.0
17/05:00am 10.2 7.5 9.1 93 0.5 NNE 13 20 7 11 1019.6 - 0.0
17/04:30am 10.4 6.5 9.3 93 0.5 N 20 22 11 12 1019.7 - 0.0
17/04:00am 10.6 6.9 9.4 92 0.6 N 19 20 10 11 1019.5 - 0.0
17/03:30am 11.1 7.9 9.9 92 0.6 N 17 19 9 10 1019.5 - 0.0
17/03:00am 11.1 7.5 9.7 91 0.7 N 19 20 10 11 1019.5 1019.6 0.0
17/02:30am 11.4 7.9 10.1 92 0.7 N 19 20 10 11 1019.5 - 0.0
17/02:00am 11.6 8.1 10.3 92 0.7 N 19 22 10 12 1019.5 - 0.0
17/01:30am 11.9 9.2 10.5 91 0.7 N 15 20 8 11 1019.7 - 0.0
17/01:00am 11.8 9.1 10.2 90 0.8 N 15 17 8 9 1019.9 - 0.0
17/12:30am 11.8 9.4 10.2 90 0.8 N 13 15 7 8 1020.3 - 0.0
17/12:00am 12.0 9.6 10.2 89 0.9 NNW 13 15 7 8 1020.4 1020.4 0.0
 
Date/Time
EST
Tmp

°C
App
Tmp
°C
Dew
Point
°C
Rel
Hum
%
Delta-T

°C
Wind Press
QNH
hPa
Press
MSL
hPa
Rain
since
9 am
mm
Dir
 
Spd
km/h
Gust
km/h
Spd
kts
Gust
kts
16/11:30pm 12.3 10.3 10.2 87 1.1 NNW 11 13 6 7 1020.5 - 0.0
16/11:00pm 12.8 9.8 10.5 86 1.2 NNW 17 20 9 11 1020.5 - 0.0
16/10:30pm 12.8 10.1 10.3 85 1.3 N 15 20 8 11 1020.4 - 0.0
16/10:00pm 13.3 10.7 10.7 84 1.4 N 15 20 8 11 1020.5 - 0.0
16/09:30pm 13.2 10.9 10.4 83 1.5 N 13 20 7 11 1020.3 - 0.0
16/09:00pm 13.7 11.0 10.5 81 1.7 N 15 20 8 11 1020.1 1020.1 0.0
16/08:30pm 14.0 10.8 9.8 76 2.2 NNE 17 24 9 13 1019.8 - 0.0
16/08:00pm 14.0 10.7 9.6 75 2.3 NNE 17 22 9 12 1019.7 - 0.0
16/07:30pm 14.0 10.7 9.6 75 2.3 NNE 17 20 9 11 1019.5 - 0.0
16/07:00pm 13.8 10.9 9.5 75 2.2 NNE 15 20 8 11 1019.5 - 0.0
16/06:30pm 13.9 11.0 9.7 76 2.2 NNE 15 20 8 11 1019.4 - 0.0
16/06:00pm 14.0 11.0 9.4 74 2.4 NNE 15 19 8 10 1019.3 1019.4 0.0
16/05:30pm 14.3 11.3 9.3 72 2.6 NE 15 17 8 9 1019.4 - 0.0
16/05:00pm 15.3 13.6 9.9 70 2.8 NE 9 13 5 7 1019.4 - 0.0
16/04:30pm 15.9 13.1 10.0 68 3.1 NE 15 20 8 11 1019.3 - 0.0
16/04:00pm 16.6 13.5 10.2 66 3.4 NE 17 22 9 12 1019.4 - 0.0
16/03:30pm 17.6 14.1 10.2 62 3.9 NE 19 26 10 14 1019.5 - 0.0
16/03:00pm 17.6 14.0 10.5 63 3.8 NE 20 28 11 15 1019.5 1019.6 0.0
16/02:30pm 17.8 14.3 8.9 56 4.6 NNE 17 24 9 13 1019.6 - 0.0
16/02:00pm 18.4 15.0 9.2 55 4.8 NNE 17 28 9 15 1019.9 - 0.0
16/01:30pm 18.0 14.5 10.1 60 4.2 NNE 19 28 10 15 1020.2 - 0.0
16/01:00pm 18.3 14.7 9.9 58 4.5 NE 19 26 10 14 1020.4 - 0.0
16/12:30pm 17.5 13.9 9.7 60 4.1 NNE 19 26 10 14 1020.8 - 0.0
16/12:00pm 17.4 13.7 9.3 59 4.2 NNE 19 28 10 15 1021.2 1021.2 0.0
16/11:30am 16.7 12.9 9.9 64 3.6 NNE 20 30 11 16 1021.6 - 0.0
16/11:00am 16.1 12.7 10.6 70 2.9 NNE 19 26 10 14 1021.8 - 0.0
16/10:30am 15.3 11.6 10.1 71 2.7 NNE 20 28 11 15 1022.0 - 0.0
16/10:00am 14.5 11.0 10.1 75 2.3 NE 19 26 10 14 1022.2 - 0.0
16/09:30am 13.1 9.5 9.7 80 1.7 NE 19 26 10 14 1022.4 - 0.0
16/09:00am 11.9 8.0 9.3 84 1.3 NNE 20 30 11 16 1022.7 1022.7 0.4
16/08:30am 10.9 6.2 9.2 89 0.8 NNE 24 30 13 16 1022.7 - 0.2
16/08:00am 10.6 6.3 9.2 91 0.7 NNE 22 30 12 16 1022.7 - 0.2
16/07:30am 10.1 6.1 8.9 92 0.6 NNE 20 26 11 14 1022.7 - 0.2
16/07:00am 9.6 5.1 8.5 93 0.5 NNE 22 28 12 15 1022.7 - 0.2
16/06:30am 9.7 5.8 8.5 92 0.6 N 19 28 10 15 1022.5 - 0.2
16/06:00am 9.2 6.3 8.0 92 0.6 N 13 19 7 10 1022.7 1022.7 0.2
16/05:30am 9.3 5.6 8.1 92 0.6 NNE 17 24 9 13 1022.6 - 0.2
16/05:00am 9.6 5.6 8.4 92 0.6 NNE 19 24 10 13 1022.7 - 0.2
16/04:30am 9.9 6.4 8.7 92 0.6 N 17 24 9 13 1022.9 - 0.2
16/04:00am 9.8 6.6 8.4 91 0.7 N 15 19 8 10 1022.9 - 0.2
16/03:30am 9.7 6.5 8.5 92 0.6 NNE 15 19 8 10 1022.9 - 0.2
16/03:00am 10.0 6.8 8.6 91 0.7 NNE 15 20 8 11 1023.1 1023.1 0.2
16/02:30am 10.1 7.0 8.9 92 0.6 N 15 19 8 10 1023.6 - 0.2
16/02:00am 10.2 6.4 9.0 92 0.6 N 19 24 10 13 1023.8 - 0.2
16/01:30am 10.2 6.7 8.8 91 0.7 N 17 20 9 11 1024.1 - 0.2
16/01:00am 10.4 7.0 9.0 91 0.7 NNE 17 20 9 11 1024.4 - 0.2
16/12:30am 10.4 7.3 9.0 91 0.7 N 15 19 8 10 1024.7 - 0.2
16/12:00am 10.7 7.3 9.1 90 0.8 NNE 17 20 9 11 1024.7 1024.7 0.2
 
Date/Time
EST
Tmp

°C
App
Tmp
°C
Dew
Point
°C
Rel
Hum
%
Delta-T

°C
Wind Press
QNH
hPa
Press
MSL
hPa
Rain
since
9 am
mm
Dir
 
Spd
km/h
Gust
km/h
Spd
kts
Gust
kts
15/11:30pm 10.7 8.4 9.1 90 0.8 N 11 17 6 9 1024.8 - 0.2
15/11:00pm 10.6 7.9 9.0 90 0.8 N 13 17 7 9 1025.2 - 0.2
15/10:30pm 10.2 7.7 8.1 87 1.0 N 11 15 6 8 1025.2 - 0.2
15/10:00pm 10.5 7.2 8.1 85 1.2 N 15 20 8 11 1025.4 - 0.2
15/09:30pm 10.1 7.1 7.9 86 1.1 N 13 15 7 8 1025.4 - 0.2
15/09:00pm 9.9 6.9 7.7 86 1.0 N 13 15 7 8 1025.3 1025.3 0.2
15/08:30pm 9.9 7.6 7.5 85 1.1 NNE 9 11 5 6 1025.5 - 0.2
15/08:00pm 10.3 8.5 8.1 86 1.1 ENE 7 9 4 5 1025.4 - 0.2
15/07:30pm 10.6 8.9 8.2 85 1.2 NE 7 9 4 5 1025.4 - 0.2
15/07:00pm 10.7 9.0 8.3 85 1.2 ENE 7 9 4 5 1025.4 - 0.2
15/06:30pm 10.9 8.8 8.1 83 1.4 E 9 11 5 6 1025.2 - 0.2

Latest Capital City Observations: Canberra | Sydney | Melbourne | Brisbane | Adelaide | Perth | Hobart | Darwin

Other Formats:

Comma delimited format used in spreadsheet applications
http://www.bom.gov.au/fwo/IDT60901/IDT60901.95967.axf

JavaScript Object Notation format (JSON) in row-major order
http://www.bom.gov.au/fwo/IDT60901/IDT60901.95967.json